Time;durP1;ratioP1;P1;durP2;ratioP2;P2;SDS_P1;SDS_P2;PMS_P1;PMS_P2;Temp;Humidity;BMP_temperature;BMP_pressure;BME280_temperature;BME280_humidity;BME280_pressure;Samples;Min_cycle;Max_cycle;Signal;HPM_P1;HPM_P2
2020/12/16 00:00:54;;;;;;;219.23;121.80;;;;;;;-1.22;86.85;99326.20;125296;1098;65198;-81
2020/12/16 00:03:20;;;;;;;227.00;128.90;;;;;;;-1.18;87.37;99331.37;124868;1100;65154;-81
2020/12/16 00:05:46;;;;;;;235.70;129.40;;;;;;;-1.17;87.61;99332.23;125308;1098;65259;-81
2020/12/16 00:08:13;;;;;;;209.97;122.67;;;;;;;-1.21;87.47;99341.88;125285;1098;65133;-81
2020/12/16 00:10:40;;;;;;;215.10;123.00;;;;;;;-1.24;87.55;99344.50;125252;1098;65143;-81
2020/12/16 00:13:10;;;;;;;225.40;128.90;;;;;;;-1.28;86.84;99350.68;124827;1100;65774;-81
2020/12/16 00:15:38;;;;;;;261.10;144.77;;;;;;;-1.28;87.52;99355.91;124901;1100;65234;-81
2020/12/16 00:18:04;;;;;;;242.80;134.90;;;;;;;-1.28;87.17;99350.68;125303;1099;65166;-81
2020/12/16 00:20:31;;;;;;;229.93;132.73;;;;;;;-1.24;87.65;99351.48;124905;1100;65306;-81
2020/12/16 00:22:57;;;;;;;251.45;140.00;;;;;;;-1.19;87.09;99354.91;124870;1100;65191;-81
2020/12/16 00:25:24;;;;;;;258.45;146.60;;;;;;;-1.19;87.54;99357.52;125306;1099;65310;-81
2020/12/16 00:27:50;;;;;;;252.70;141.20;;;;;;;-1.18;87.06;99364.50;125318;1098;65188;-81
2020/12/16 00:30:16;;;;;;;249.37;141.73;;;;;;;-1.16;87.69;99353.14;124895;1099;65189;-82
2020/12/16 00:32:43;;;;;;;236.37;135.67;;;;;;;-1.14;87.62;99348.73;125385;1098;65102;-81
2020/12/16 00:35:09;;;;;;;236.73;131.73;;;;;;;-1.14;86.78;99363.56;124761;1100;65246;-79
2020/12/16 00:37:38;;;;;;;220.63;129.00;;;;;;;-1.18;87.05;99369.73;124806;1098;65172;-80
2020/12/16 00:40:06;;;;;;;225.07;126.50;;;;;;;-1.24;86.79;99356.72;125278;1098;65130;-79
2020/12/16 00:42:33;;;;;;;223.97;132.20;;;;;;;-1.24;86.89;99362.81;125243;1098;65162;-80
2020/12/16 00:45:00;;;;;;;223.97;128.37;;;;;;;-1.22;86.85;99374.13;125276;1099;65181;-80
2020/12/16 00:47:26;;;;;;;231.53;136.07;;;;;;;-1.16;86.94;99360.09;124780;1098;65162;-79
2020/12/16 00:49:53;;;;;;;236.03;134.83;;;;;;;-1.12;86.77;99359.18;124786;1100;65245;-79
2020/12/16 00:52:19;;;;;;;236.07;129.90;;;;;;;-1.16;87.10;99360.09;124792;1100;65175;-82
2020/12/16 00:54:46;;;;;;;225.00;131.73;;;;;;;-1.12;87.14;99369.64;125230;1099;65153;-80
2020/12/16 00:57:12;;;;;;;223.05;130.65;;;;;;;-1.12;86.87;99372.26;125290;1098;65157;-80
2020/12/16 00:59:38;;;;;;;234.83;138.93;;;;;;;-1.09;87.48;99373.97;124751;1100;65173;-82
2020/12/16 01:02:06;;;;;;;249.30;138.35;;;;;;;-1.12;86.97;99370.50;124873;1099;65153;-80
2020/12/16 01:04:32;;;;;;;221.97;132.03;;;;;;;-1.18;87.04;99375.83;124858;1100;65349;-81
2020/12/16 01:06:59;;;;;;;231.85;133.40;;;;;;;-1.19;87.09;99367.98;125230;1098;65118;-81
2020/12/16 01:09:25;;;;;;;245.87;143.43;;;;;;;-1.20;87.27;99371.50;125253;1100;65137;-81
2020/12/16 01:11:52;;;;;;;237.47;134.57;;;;;;;-1.23;86.96;99363.70;124907;1100;65592;-81
2020/12/16 01:14:18;;;;;;;227.87;135.97;;;;;;;-1.26;87.21;99369.83;125230;1098;65219;-81
2020/12/16 01:16:45;;;;;;;189.87;115.85;;;;;;;-1.27;86.56;99367.23;124903;1100;65252;-81
2020/12/16 01:19:11;;;;;;;238.20;133.37;;;;;;;-1.28;87.33;99376.83;124868;1099;65198;-81
2020/12/16 01:21:38;;;;;;;168.40;105.07;;;;;;;-1.23;87.41;99382.00;125245;1098;65153;-81
2020/12/16 01:24:08;;;;;;;153.60;94.15;;;;;;;-1.16;87.56;99373.17;125233;1098;65182;-81
2020/12/16 01:26:46;;;;;;;153.13;92.33;;;;;;;-1.05;87.46;99371.30;124857;1100;65255;-81
2020/12/16 01:29:17;;;;;;;178.67;110.07;;;;;;;-0.96;87.57;99371.15;125217;1098;65214;-81
2020/12/16 01:31:46;;;;;;;147.43;91.10;;;;;;;-0.87;87.69;99374.52;124864;1100;65614;-81
2020/12/16 01:34:13;;;;;;;191.17;117.60;;;;;;;-0.83;88.16;99377.08;125256;1098;65118;-81
2020/12/16 01:36:41;;;;;;;154.70;99.17;;;;;;;-0.81;88.15;99380.54;124894;1100;65192;-81
2020/12/16 01:39:10;;;;;;;120.00;78.43;;;;;;;-0.75;87.46;99380.44;125266;1098;65156;-81
2020/12/16 01:41:44;;;;;;;100.93;63.47;;;;;;;-0.68;87.76;99379.47;124916;1100;65240;-80
2020/12/16 01:44:13;;;;;;;123.87;75.17;;;;;;;-0.59;88.28;99383.69;125255;1098;65166;-81
2020/12/16 01:46:55;;;;;;;72.17;45.73;;;;;;;-0.51;87.96;99383.57;124933;1100;65170;-81
2020/12/16 01:49:23;;;;;;;71.80;44.40;;;;;;;-0.42;88.31;99388.67;124910;1100;65233;-81
2020/12/16 01:51:58;;;;;;;50.90;31.40;;;;;;;-0.36;88.58;99377.23;125252;1100;65124;-81
2020/12/16 01:54:26;;;;;;;36.70;24.70;;;;;;;-0.29;88.93;99374.48;124936;1099;65178;-81
2020/12/16 01:56:57;;;;;;;40.93;24.00;;;;;;;-0.22;88.67;99383.09;124876;1100;65150;-81
2020/12/16 01:59:24;;;;;;;35.70;23.00;;;;;;;-0.11;88.83;99391.62;124872;1100;65566;-81
2020/12/16 02:01:53;;;;;;;37.10;24.80;;;;;;;-0.01;88.73;99392.33;125293;1098;65144;-81
2020/12/16 02:04:24;;;;;;;36.50;25.00;;;;;;;0.05;89.11;99386.11;124906;1099;65159;-81
2020/12/16 02:06:52;;;;;;;33.77;22.67;;;;;;;0.11;89.26;99386.02;125353;1098;65256;-81
2020/12/16 02:09:20;;;;;;;38.15;23.05;;;;;;;0.15;88.63;99385.05;124815;1100;65154;-82
2020/12/16 02:11:47;;;;;;;40.53;25.27;;;;;;;0.20;89.41;99393.70;125320;1099;65156;-81
2020/12/16 02:14:16;;;;;;;37.17;24.73;;;;;;;0.22;89.00;99378.81;124937;1099;65150;-81
2020/12/16 02:16:42;;;;;;;33.60;22.65;;;;;;;0.27;89.31;99384.84;125292;1099;65280;-81
2020/12/16 02:19:10;;;;;;;32.03;21.50;;;;;;;0.30;89.40;99379.53;124883;1100;65238;-81
2020/12/16 02:21:37;;;;;;;32.53;21.30;;;;;;;0.34;88.80;99375.97;124934;1100;65239;-81
2020/12/16 02:24:10;;;;;;;27.60;19.17;;;;;;;0.37;88.92;99381.15;125321;1098;65159;-81
2020/12/16 02:26:39;;;;;;;27.73;19.80;;;;;;;0.40;88.90;99381.08;125235;1099;65166;-81
2020/12/16 02:29:08;;;;;;;33.18;22.90;;;;;;;0.41;88.73;99374.08;124872;1100;65188;-81
2020/12/16 02:31:38;;;;;;;29.97;21.30;;;;;;;0.42;88.70;99371.44;125279;1098;65165;-81
2020/12/16 02:34:05;;;;;;;29.53;21.50;;;;;;;0.44;88.85;99376.63;124793;1098;65361;-81
2020/12/16 02:36:32;;;;;;;24.75;18.50;;;;;;;0.45;89.23;99381.00;125313;1098;65153;-80
2020/12/16 02:38:59;;;;;;;24.27;18.77;;;;;;;0.50;89.22;99375.64;124851;1100;65287;-79
2020/12/16 02:41:27;;;;;;;23.50;15.50;;;;;;;0.52;88.94;99372.09;125294;1098;65301;-81
2020/12/16 02:43:54;;;;;;;20.43;15.30;;;;;;;0.56;89.00;99368.53;125273;1099;65127;-80
2020/12/16 02:46:20;;;;;;;18.70;13.40;;;;;;;0.59;88.87;99370.23;125381;1098;65175;-80
2020/12/16 02:48:47;;;;;;;71.65;30.25;;;;;;;0.61;89.11;99371.06;125376;1098;65134;-80
2020/12/16 02:51:13;;;;;;;57.60;27.57;;;;;;;0.61;89.21;99382.42;124859;1099;65136;-80
2020/12/16 02:53:40;;;;;;;36.00;20.53;;;;;;;0.63;88.83;99388.50;124836;1100;65198;-80
2020/12/16 02:56:06;;;;;;;22.52;15.30;;;;;;;0.65;89.13;99378.81;124862;1099;65150;-81
2020/12/16 02:58:33;;;;;;;19.20;14.25;;;;;;;0.69;89.14;99384.88;125243;1099;65179;-80
2020/12/16 03:00:59;;;;;;;21.67;16.17;;;;;;;0.74;88.98;99383.03;124879;1100;65229;-80
2020/12/16 03:03:25;;;;;;;24.60;17.27;;;;;;;0.76;89.04;99385.60;124870;1098;65191;-80
2020/12/16 03:05:52;;;;;;;22.77;16.77;;;;;;;0.77;89.20;99388.21;125267;1098;65140;-80
2020/12/16 03:08:19;;;;;;;22.97;15.77;;;;;;;0.77;89.42;99388.21;125186;1099;65176;-82
2020/12/16 03:10:46;;;;;;;21.45;16.05;;;;;;;0.78;88.91;99392.55;124782;1100;65137;-81
2020/12/16 03:13:13;;;;;;;23.43;17.53;;;;;;;0.80;88.86;99388.14;125204;1098;65150;-80
2020/12/16 03:15:39;;;;;;;20.60;15.57;;;;;;;0.83;89.39;99393.31;124789;1100;65124;-80
2020/12/16 03:18:05;;;;;;;19.30;15.17;;;;;;;0.84;88.69;99400.31;124895;1098;65144;-80
2020/12/16 03:20:32;;;;;;;18.53;14.30;;;;;;;0.87;88.93;99392.38;124798;1100;65141;-80
2020/12/16 03:22:58;;;;;;;16.67;13.70;;;;;;;0.92;89.30;99391.39;125244;1098;65136;-82
2020/12/16 03:25:25;;;;;;;19.10;14.80;;;;;;;0.96;88.89;99386.05;125247;1098;65188;-80
2020/12/16 03:27:51;;;;;;;20.50;15.17;;;;;;;1.00;89.35;99392.08;125213;1098;65174;-80
2020/12/16 03:30:18;;;;;;;23.43;15.53;;;;;;;1.04;88.71;99394.62;124828;1099;65265;-80
2020/12/16 03:32:44;;;;;;;22.13;17.17;;;;;;;1.04;88.77;99391.99;124781;1100;65181;-80
2020/12/16 03:35:11;;;;;;;20.40;14.90;;;;;;;1.04;89.22;99385.89;125268;1098;65147;-80
2020/12/16 03:37:37;;;;;;;20.80;15.05;;;;;;;1.08;89.19;99393.67;125337;1098;65159;-80
2020/12/16 03:40:04;;;;;;;16.67;13.87;;;;;;;1.13;88.83;99388.29;124852;1099;65217;-80
2020/12/16 03:42:30;;;;;;;21.77;14.78;;;;;;;1.16;88.66;99395.23;125222;1098;65163;-80
2020/12/16 03:44:57;;;;;;;18.67;13.87;;;;;;;1.21;88.84;99394.27;125232;1098;65695;-80
2020/12/16 03:47:23;;;;;;;20.40;15.53;;;;;;;1.27;89.08;99390.63;125190;1098;65162;-80
2020/12/16 03:49:49;;;;;;;21.60;16.57;;;;;;;1.27;88.59;99396.73;124872;1100;65217;-80
2020/12/16 03:52:16;;;;;;;23.87;17.90;;;;;;;1.26;88.88;99397.65;125324;1098;65587;-80
2020/12/16 03:54:42;;;;;;;20.37;16.03;;;;;;;1.26;88.51;99396.76;124842;1100;65342;-80
2020/12/16 03:57:09;;;;;;;20.20;15.27;;;;;;;1.28;88.59;99400.22;125072;1099;65205;-80
2020/12/16 03:59:35;;;;;;;18.43;15.03;;;;;;;1.29;88.75;99402.83;124891;1098;65147;-80
2020/12/16 04:02:01;;;;;;;21.17;16.23;;;;;;;1.35;88.72;99406.21;125226;1098;65102;-80
2020/12/16 04:04:28;;;;;;;24.33;16.93;;;;;;;1.38;88.61;99403.51;125204;1098;65203;-80
2020/12/16 04:06:56;;;;;;;27.90;19.10;;;;;;;1.37;88.84;99414.89;124921;1099;65197;-81
2020/12/16 04:09:25;;;;;;;27.63;21.37;;;;;;;1.38;88.67;99416.64;125316;1099;65176;-81
2020/12/16 04:11:54;;;;;;;32.47;22.73;;;;;;;1.37;88.82;99413.16;125279;1098;65243;-81
2020/12/16 04:14:21;;;;;;;30.37;20.92;;;;;;;1.35;88.44;99406.21;125251;1099;65151;-81
2020/12/16 04:16:48;;;;;;;27.20;18.05;;;;;;;1.36;88.84;99408.78;125215;1098;65733;-81
2020/12/16 04:19:14;;;;;;;24.73;17.10;;;;;;;1.36;88.44;99407.92;124921;1099;65144;-80
2020/12/16 04:21:41;;;;;;;27.87;17.93;;;;;;;1.39;88.09;99419.20;124794;1098;65130;-81
2020/12/16 04:24:08;;;;;;;27.03;18.40;;;;;;;1.43;88.79;99420.02;124845;1098;65076;-81
2020/12/16 04:26:34;;;;;;;24.03;18.77;;;;;;;1.45;88.49;99423.45;125282;1100;65140;-80
2020/12/16 04:29:00;;;;;;;26.20;18.70;;;;;;;1.38;88.25;99420.13;124868;1100;65133;-81
2020/12/16 04:31:27;;;;;;;26.70;19.83;;;;;;;1.33;88.24;99429.86;124905;1100;65189;-80
2020/12/16 04:33:53;;;;;;;28.95;22.00;;;;;;;1.26;87.97;99428.27;124827;1100;65242;-80
2020/12/16 04:36:20;;;;;;;31.67;21.93;;;;;;;1.20;88.54;99431.89;125249;1098;66335;-80
2020/12/16 04:38:46;;;;;;;23.33;17.13;;;;;;;1.13;87.90;99424.18;124873;1099;65194;-81
2020/12/16 04:41:13;;;;;;;23.07;16.30;;;;;;;1.08;88.49;99433.03;124867;1099;65319;-81
2020/12/16 04:43:41;;;;;;;24.20;17.90;;;;;;;1.08;88.22;99425.16;124954;1100;65249;-81
2020/12/16 04:46:14;;;;;;;25.77;17.67;;;;;;;1.08;88.72;99433.03;125339;1099;65156;-81
2020/12/16 04:48:45;;;;;;;24.93;19.03;;;;;;;1.05;88.40;99424.34;125340;1098;65140;-81
2020/12/16 04:51:16;;;;;;;27.00;19.40;;;;;;;1.02;88.69;99433.14;124850;1100;65170;-81
2020/12/16 04:53:45;;;;;;;29.43;21.00;;;;;;;0.98;88.50;99435.89;124846;1100;65127;-81
2020/12/16 04:56:12;;;;;;;25.33;18.23;;;;;;;0.94;88.31;99440.31;124956;1100;65156;-81
2020/12/16 04:58:39;;;;;;;24.13;17.47;;;;;;;0.92;88.72;99442.10;125286;1099;65153;-81
2020/12/16 05:01:08;;;;;;;22.87;14.93;;;;;;;0.91;88.49;99445.64;125267;1098;65179;-81
2020/12/16 05:03:40;;;;;;;20.00;13.53;;;;;;;0.92;88.76;99443.88;124916;1100;65159;-81
2020/12/16 05:06:06;;;;;;;20.65;13.30;;;;;;;0.92;88.37;99443.88;124884;1098;65198;-80
2020/12/16 05:08:33;;;;;;;19.30;13.67;;;;;;;0.93;88.78;99443.00;124916;1100;66368;-81
2020/12/16 05:10:59;;;;;;;22.25;16.20;;;;;;;0.94;88.81;99448.19;125278;1099;65124;-81
2020/12/16 05:13:26;;;;;;;22.10;15.37;;;;;;;0.93;88.34;99446.47;125001;1100;65142;-81
2020/12/16 05:15:54;;;;;;;22.90;15.05;;;;;;;0.91;88.81;99453.50;125315;1099;65102;-81
2020/12/16 05:18:27;;;;;;;19.30;13.70;;;;;;;0.89;88.65;99452.67;124809;1099;65229;-81
2020/12/16 05:20:59;;;;;;;18.07;14.13;;;;;;;0.87;88.77;99452.72;125228;1098;65143;-80
2020/12/16 05:23:26;;;;;;;18.13;13.90;;;;;;;0.90;88.33;99459.66;124912;1098;65255;-81
2020/12/16 05:26:06;;;;;;;17.50;14.15;;;;;;;0.91;88.98;99458.75;125259;1099;65178;-80
2020/12/16 05:28:55;;;;;;;19.93;14.37;;;;;;;0.90;88.83;99458.80;125218;1098;65191;-80
2020/12/16 05:31:28;;;;;;;20.40;14.73;;;;;;;0.85;88.41;99462.38;125294;1100;65125;-80
2020/12/16 05:33:55;;;;;;;19.93;15.73;;;;;;;0.83;88.80;99472.03;124908;1100;65272;-80
2020/12/16 05:36:29;;;;;;;22.73;17.20;;;;;;;0.80;88.32;99472.09;124888;1098;65256;-80
2020/12/16 05:38:57;;;;;;;19.50;15.40;;;;;;;0.78;88.49;99470.39;125356;1098;65169;-80
2020/12/16 05:41:31;;;;;;;19.50;14.77;;;;;;;0.76;88.47;99464.30;124885;1099;65575;-80
2020/12/16 05:44:22;;;;;;;17.63;14.07;;;;;;;0.80;89.22;99474.72;124868;1098;65301;-80
2020/12/16 05:46:50;;;;;;;21.87;15.97;;;;;;;0.78;89.03;99476.50;124854;1100;65442;-80
2020/12/16 05:49:28;;;;;;;22.65;17.70;;;;;;;0.77;88.37;99473.92;124926;1100;65093;-80
2020/12/16 05:52:02;;;;;;;27.47;17.93;;;;;;;0.72;88.60;99478.39;124803;1100;65258;-80
2020/12/16 05:54:30;;;;;;;27.87;19.07;;;;;;;0.65;88.44;99477.63;124830;1100;65115;-80
2020/12/16 05:57:18;;;;;;;29.80;21.60;;;;;;;0.60;88.89;99480.33;124819;1099;65197;-80
2020/12/16 06:00:05;;;;;;;23.03;17.80;;;;;;;0.59;88.69;99481.23;124885;1099;65163;-80
2020/12/16 06:02:35;;;;;;;23.77;17.27;;;;;;;0.61;88.55;99482.08;125277;1099;65154;-80
2020/12/16 06:05:03;;;;;;;26.00;17.23;;;;;;;0.62;89.12;99480.31;125221;1098;65265;-80
2020/12/16 06:07:32;;;;;;;25.83;19.07;;;;;;;0.63;88.83;99485.55;124913;1100;65187;-80
2020/12/16 06:09:59;;;;;;;33.97;25.27;;;;;;;0.63;88.86;99484.66;124865;1100;65220;-80
2020/12/16 06:12:28;;;;;;;29.40;21.73;;;;;;;0.61;88.60;99492.56;124911;1100;65200;-80
2020/12/16 06:15:13;;;;;;;29.13;21.40;;;;;;;0.58;88.74;99491.73;125353;1099;65236;-80
2020/12/16 06:17:47;;;;;;;24.07;18.80;;;;;;;0.52;88.71;99492.72;125251;1098;65172;-80
2020/12/16 06:20:18;;;;;;;23.40;16.55;;;;;;;0.52;89.14;99490.09;125240;1099;65159;-80
2020/12/16 06:22:47;;;;;;;22.90;17.55;;;;;;;0.55;88.89;99497.05;124856;1099;65379;-80
2020/12/16 06:25:16;;;;;;;22.47;17.00;;;;;;;0.54;88.99;99488.32;125314;1098;65544;-80
2020/12/16 06:27:43;;;;;;;;;;;;;;;0.53;89.12;99489.22;124910;1099;65252;-80
2020/12/16 06:30:28;;;;;;;25.27;20.30;;;;;;;0.51;88.73;99491.00;125286;1098;65159;-80
2020/12/16 06:33:27;;;;;;;28.70;20.10;;;;;;;0.43;88.65;99501.62;124948;1098;65168;-79
2020/12/16 06:36:05;;;;;;;38.43;25.00;;;;;;;0.31;88.22;99496.59;124901;1100;65275;-81
2020/12/16 06:38:42;;;;;;;45.45;32.10;;;;;;;0.30;88.40;99502.73;125271;1098;65175;-79
2020/12/16 06:41:19;;;;;;;57.43;33.90;;;;;;;0.29;88.82;99501.02;124793;1100;65207;-79
2020/12/16 06:43:47;;;;;;;44.30;31.20;;;;;;;0.27;88.63;99500.17;124788;1100;65251;-81
2020/12/16 06:46:32;;;;;;;47.90;35.60;;;;;;;0.27;88.52;99499.31;125269;1098;65173;-81
2020/12/16 06:49:04;;;;;;;54.20;36.60;;;;;;;0.28;88.94;99499.27;125335;1098;65143;-83
2020/12/16 06:51:43;;;;;;;57.80;42.20;;;;;;;0.24;88.13;99496.72;125306;1098;65189;-81
2020/12/16 06:54:14;;;;;;;62.20;43.53;;;;;;;0.18;88.46;99501.17;124874;1100;65136;-81
2020/12/16 06:56:41;;;;;;;77.13;55.50;;;;;;;0.16;88.77;99512.59;124835;1098;65688;-81
2020/12/16 06:59:11;;;;;;;81.67;57.57;;;;;;;0.15;88.40;99518.71;125254;1098;65158;-80
2020/12/16 07:01:38;;;;;;;74.25;53.05;;;;;;;0.12;88.54;99517.01;124857;1098;65175;-81
2020/12/16 07:04:11;;;;;;;112.03;80.30;;;;;;;0.13;88.17;99520.48;125197;1098;65096;-81
2020/12/16 07:06:42;;;;;;;95.40;68.70;;;;;;;0.10;87.90;99524.02;125259;1098;65153;-81
2020/12/16 07:09:18;;;;;;;88.67;59.93;;;;;;;0.11;88.04;99527.53;124893;1100;65134;-81
2020/12/16 07:11:47;;;;;;;80.47;55.57;;;;;;;0.10;88.30;99520.54;125305;1098;65288;-81
2020/12/16 07:14:16;;;;;;;80.62;55.15;;;;;;;0.11;88.46;99519.67;125199;1098;65133;-80
2020/12/16 07:16:43;;;;;;;82.30;57.13;;;;;;;0.08;88.27;99523.20;124980;1100;65290;-80
2020/12/16 07:19:12;;;;;;;89.90;62.53;;;;;;;0.05;88.05;99532.84;125370;1099;65154;-80
2020/12/16 07:21:40;;;;;;;88.50;63.30;;;;;;;0.01;88.07;99532.05;125249;1099;65227;-80
2020/12/16 07:24:11;;;;;;;84.77;60.77;;;;;;;0.02;87.97;99539.00;124893;1099;65594;-81
2020/12/16 07:26:55;;;;;;;91.45;60.75;;;;;;;0.03;88.12;99535.52;124904;1100;65240;-80
2020/12/16 07:29:32;;;;;;;78.20;57.50;;;;;;;0.10;87.62;99537.13;125206;1098;65150;-81
2020/12/16 07:32:13;;;;;;;90.30;61.53;;;;;;;0.26;88.61;99536.88;125386;1098;65151;-81
2020/12/16 07:34:50;;;;;;;98.70;70.17;;;;;;;0.39;88.64;99538.41;124903;1098;65229;-81
2020/12/16 07:37:19;;;;;;;110.13;77.23;;;;;;;0.50;87.85;99540.84;124900;1100;65249;-82
2020/12/16 07:39:50;;;;;;;129.27;88.87;;;;;;;0.56;88.19;99546.00;125346;1098;65202;-81
2020/12/16 07:42:27;;;;;;;111.40;80.97;;;;;;;0.57;87.83;99552.97;125341;1098;65115;-81
2020/12/16 07:45:08;;;;;;;95.57;69.20;;;;;;;0.59;87.78;99556.44;125339;1098;65236;-81
2020/12/16 07:47:36;;;;;;;89.50;67.27;;;;;;;0.62;88.00;99553.75;124884;1098;65271;-81
2020/12/16 07:50:08;;;;;;;94.40;65.85;;;;;;;0.68;87.49;99553.63;124885;1100;65171;-81
2020/12/16 07:52:35;;;;;;;105.40;77.67;;;;;;;0.68;87.50;99561.50;125299;1099;65262;-81
2020/12/16 07:55:02;;;;;;;118.43;88.80;;;;;;;0.67;87.66;99564.17;125299;1098;65124;-81
2020/12/16 07:57:29;;;;;;;133.37;97.90;;;;;;;0.66;87.49;99563.31;124883;1098;65149;-81
2020/12/16 07:59:56;;;;;;;126.50;88.90;;;;;;;0.65;87.48;99561.56;124791;1100;65259;-81
2020/12/16 08:02:23;;;;;;;106.97;75.40;;;;;;;0.62;87.52;99557.23;125221;1099;65213;-81
2020/12/16 08:04:55;;;;;;;154.53;112.20;;;;;;;0.62;87.68;99556.38;124897;1100;65322;-81
2020/12/16 08:07:21;;;;;;;164.80;114.50;;;;;;;0.70;87.43;99559.72;124883;1100;65077;-81
2020/12/16 08:10:03;;;;;;;191.25;132.55;;;;;;;0.85;87.54;99550.72;125295;1098;65230;-81
2020/12/16 08:12:32;;;;;;;230.83;155.53;;;;;;;0.97;87.77;99554.86;125298;1098;65352;-81
2020/12/16 08:15:14;;;;;;;209.80;150.33;;;;;;;1.09;87.28;99550.24;125341;1099;65262;-81
2020/12/16 08:17:41;;;;;;;204.00;144.23;;;;;;;1.12;87.12;99557.19;125371;1098;65214;-81
2020/12/16 08:20:17;;;;;;;187.20;130.75;;;;;;;1.16;87.11;99560.61;124861;1098;65261;-81
2020/12/16 08:22:48;;;;;;;172.03;126.00;;;;;;;1.27;87.25;99564.77;124846;1100;65222;-81
2020/12/16 08:25:17;;;;;;;146.97;108.87;;;;;;;1.41;87.64;99574.98;125329;1098;65127;-81
2020/12/16 08:27:52;;;;;;;158.20;106.40;;;;;;;1.49;87.34;99573.06;125356;1098;65140;-81
2020/12/16 08:30:23;;;;;;;187.83;130.60;;;;;;;1.50;87.25;99572.19;125285;1098;65146;-82
2020/12/16 08:33:06;;;;;;;207.10;146.20;;;;;;;1.57;87.00;99575.53;125452;1099;65150;-83
2020/12/16 08:35:38;;;;;;;196.03;142.83;;;;;;;1.61;86.84;99577.22;125331;1098;65201;-80
2020/12/16 08:38:07;;;;;;;199.83;140.37;;;;;;;1.63;87.01;99591.16;124841;1100;65147;-82
2020/12/16 08:40:38;;;;;;;;;;;;;;;1.61;87.07;99590.34;125258;1099;65076;-81
2020/12/16 08:43:15;;;;;;;163.70;118.03;;;;;;;1.64;86.88;99590.28;125293;1098;65407;-81
2020/12/16 08:45:43;;;;;;;162.17;111.77;;;;;;;1.69;86.81;99592.81;124944;1099;65389;-81
2020/12/16 08:48:11;;;;;;;157.65;111.90;;;;;;;1.74;86.96;99594.45;124941;1099;65214;-81
2020/12/16 08:50:38;;;;;;;166.47;121.03;;;;;;;1.79;86.64;99603.97;124862;1098;65276;-81
2020/12/16 08:53:05;;;;;;;178.35;124.95;;;;;;;1.88;86.98;99607.28;124960;1100;65130;-80
2020/12/16 08:55:37;;;;;;;177.10;124.40;;;;;;;1.94;86.93;99604.50;124934;1098;65296;-81
2020/12/16 08:58:05;;;;;;;173.10;121.87;;;;;;;1.99;86.92;99612.30;124876;1100;65163;-80
2020/12/16 09:00:36;;;;;;;172.53;122.77;;;;;;;2.06;87.02;99613.90;125322;1099;65156;-80
2020/12/16 09:03:08;;;;;;;147.77;104.37;;;;;;;2.10;86.98;99610.28;124866;1098;65274;-81
2020/12/16 09:05:38;;;;;;;139.87;97.30;;;;;;;2.15;86.53;99604.92;125294;1098;65136;-81
2020/12/16 09:08:09;;;;;;;136.93;87.37;;;;;;;2.23;86.69;99615.27;124919;1100;65235;-81
2020/12/16 09:10:38;;;;;;;88.10;56.47;;;;;;;2.28;86.70;99616.89;125283;1098;65155;-81
2020/12/16 09:13:13;;;;;;;83.73;51.20;;;;;;;2.32;86.71;99610.67;124898;1099;65178;-81
2020/12/16 09:15:43;;;;;;;79.00;48.43;;;;;;;2.41;86.70;99613.07;125267;1098;65143;-82
2020/12/16 09:18:10;;;;;;;;;;;;;;;2.50;86.47;99621.64;125359;1098;65137;-82
2020/12/16 09:20:37;;;;;;;57.33;33.13;;;;;;;2.49;86.04;99619.92;125314;1098;65153;-82
2020/12/16 09:23:04;;;;;;;49.35;27.45;;;;;;;2.48;86.06;99613.80;125324;1098;65261;-81
2020/12/16 09:25:31;;;;;;;43.70;26.95;;;;;;;2.52;86.47;99607.55;124872;1100;65354;-82
2020/12/16 09:28:00;;;;;;;27.30;17.63;;;;;;;2.60;85.94;99607.36;125219;1098;65194;-82
2020/12/16 09:30:34;;;;;;;20.40;14.80;;;;;;;2.68;86.27;99613.30;124959;1100;65160;-79
2020/12/16 09:33:15;;;;;;;21.23;13.77;;;;;;;2.79;85.92;99610.39;124894;1100;65166;-80
2020/12/16 09:35:43;;;;;;;19.97;13.13;;;;;;;2.86;85.31;99619.87;124935;1099;65179;-80
2020/12/16 09:38:19;;;;;;;20.53;13.40;;;;;;;2.94;85.65;99615.27;124881;1100;65205;-80
2020/12/16 09:40:47;;;;;;;18.97;14.00;;;;;;;3.03;84.91;99622.95;125264;1098;65134;-81
2020/12/16 09:43:15;;;;;;;17.83;12.27;;;;;;;3.12;85.24;99611.30;125287;1099;65220;-81
2020/12/16 09:45:41;;;;;;;15.27;11.07;;;;;;;3.22;84.87;99615.41;125219;1098;65474;-81
2020/12/16 09:48:08;;;;;;;17.23;11.03;;;;;;;3.28;84.85;99611.74;125332;1099;65156;-80
2020/12/16 09:50:36;;;;;;;18.00;11.93;;;;;;;3.35;84.62;99612.45;124868;1099;65230;-83
2020/12/16 09:53:06;;;;;;;15.60;10.67;;;;;;;3.39;84.26;99617.58;125320;1098;65383;-81
2020/12/16 09:55:40;;;;;;;;;;;;;;;3.44;84.40;99612.19;125394;1098;65153;-82
2020/12/16 09:58:10;;;;;;;17.03;10.33;;;;;;;3.49;83.71;99618.19;125320;1099;65102;-81
2020/12/16 10:00:40;;;;;;;15.70;10.40;;;;;;;3.55;83.79;99614.52;124902;1099;65171;-81
2020/12/16 10:03:12;;;;;;;15.40;9.70;;;;;;;3.62;83.62;99610.80;124923;1100;65150;-80
2020/12/16 10:05:42;;;;;;;14.33;9.70;;;;;;;3.63;83.37;99617.80;124880;1100;65143;-81
2020/12/16 10:08:14;;;;;;;14.58;9.63;;;;;;;3.62;82.93;99611.66;125290;1098;65156;-81
2020/12/16 10:10:42;;;;;;;18.00;9.75;;;;;;;3.64;83.31;99598.45;125286;1098;65224;-81
2020/12/16 10:13:09;;;;;;;14.37;9.30;;;;;;;3.71;83.09;99606.14;125317;1099;65188;-81
2020/12/16 10:15:35;;;;;;;15.57;10.20;;;;;;;3.83;83.38;99602.27;124885;1099;65752;-81
2020/12/16 10:18:02;;;;;;;12.63;8.83;;;;;;;3.93;82.89;99606.36;125203;1098;65144;-81
2020/12/16 10:20:29;;;;;;;13.87;10.00;;;;;;;4.04;83.10;99597.27;125307;1098;65130;-81
2020/12/16 10:22:56;;;;;;;15.90;10.70;;;;;;;4.17;82.57;99598.61;125259;1098;65153;-81
2020/12/16 10:25:22;;;;;;;15.07;10.77;;;;;;;4.29;82.04;99597.34;124894;1098;65262;-80
2020/12/16 10:27:49;;;;;;;14.45;10.05;;;;;;;4.35;81.92;99605.09;125283;1100;65182;-82
2020/12/16 10:30:15;;;;;;;12.97;9.73;;;;;;;4.38;81.83;99605.84;124871;1100;65028;-81
2020/12/16 10:32:42;;;;;;;12.87;9.43;;;;;;;4.37;81.35;99606.77;125204;1098;65262;-81
2020/12/16 10:35:08;;;;;;;12.67;9.40;;;;;;;4.33;81.69;99604.27;125245;1098;65242;-81
2020/12/16 10:37:36;;;;;;;12.70;9.50;;;;;;;4.23;81.78;99603.69;125340;1098;65175;-81
2020/12/16 10:40:04;;;;;;;13.53;9.47;;;;;;;4.15;81.40;99606.55;125329;1098;65178;-81
2020/12/16 10:42:31;;;;;;;14.03;10.10;;;;;;;4.16;81.47;99603.03;125247;1099;65134;-80
2020/12/16 10:44:58;;;;;;;12.35;8.75;;;;;;;4.18;81.45;99597.69;124851;1100;65166;-81
2020/12/16 10:47:24;;;;;;;12.00;8.33;;;;;;;4.24;81.74;99594.88;124873;1100;65205;-81
2020/12/16 10:49:50;;;;;;;14.23;9.90;;;;;;;4.29;81.75;99597.34;124900;1100;65121;-81
2020/12/16 10:52:17;;;;;;;14.60;10.00;;;;;;;4.32;81.67;99597.27;125248;1098;65115;-82
2020/12/16 10:54:43;;;;;;;14.60;11.30;;;;;;;4.34;81.67;99596.28;125325;1098;65233;-81
2020/12/16 10:57:11;;;;;;;16.07;11.00;;;;;;;4.33;81.47;99602.48;124840;1100;65156;-80
2020/12/16 10:59:37;;;;;;;16.87;12.83;;;;;;;4.33;81.55;99605.13;124857;1099;65172;-81
2020/12/16 11:02:04;;;;;;;12.73;8.57;;;;;;;4.37;80.90;99605.88;125237;1098;65202;-81
2020/12/16 11:04:31;;;;;;;12.87;9.30;;;;;;;4.41;81.38;99607.52;125225;1098;65325;-81
2020/12/16 11:06:58;;;;;;;15.30;12.40;;;;;;;4.47;81.75;99607.31;124911;1099;65716;-81
2020/12/16 11:09:24;;;;;;;12.87;9.27;;;;;;;4.54;81.21;99603.57;125310;1099;65156;-81
2020/12/16 11:11:53;;;;;;;14.83;10.63;;;;;;;4.60;80.96;99598.08;124840;1098;65258;-81
2020/12/16 11:14:20;;;;;;;13.93;11.83;;;;;;;4.68;81.46;99599.61;125277;1098;65153;-81
2020/12/16 11:16:48;;;;;;;15.20;12.03;;;;;;;4.77;81.48;99597.54;125298;1098;65150;-81
2020/12/16 11:19:16;;;;;;;17.43;11.70;;;;;;;4.82;80.87;99600.89;125283;1099;65120;-81
2020/12/16 11:21:49;;;;;;;14.97;11.17;;;;;;;4.87;80.45;99592.82;125308;1098;65182;-81
2020/12/16 11:24:20;;;;;;;12.97;9.07;;;;;;;4.88;80.10;99597.17;124811;1100;65192;-82